»·PEaware :: N2102W KSNA-KPSP

N2102W :: KSNA-KPSP

FLIGHT INFORMATION

Flight Status: Arrived
Operator: Privately registered:
United States
More flights under this callsign
Pilot: Eric G. (5941)
Aircraft: Cessna 700 Citation Longitude
(C700)
More flights by this aircraft type
Origin: KSNA John Wayne-Orange Co
United States
Destination: KPSP Palm Springs Intl
United States
More flights between these airports :: More routes between these airports
Route: +MUSEL8 TRM
File this flight plan on PilotEdge
Remarks: NA
Altitude:
(Current/Filed)
17,000ft
Speed:
(Current/Filed)
315kts
Departed: 24-Oct-20 05:39 PM
Arrived: 24-Oct-20 06:08 PM
Distance/Time
Traveled:
69nm/0:28
Distance/Time
To Go:
Arrived

Flight Plot

Page will automatically refresh every two minutes.

Flight plan parsing failed; only flown route is shown


Map Options




Map Legend


Flown Route
Filed Route
Departure Airport
Arrival Airport
Navaid (VOR, NDB)
Fix

Horizontal Profiles

Position Reports

Time Latitude Longitude Heading Altitude Ground
Speed
24-Oct-20 17:18 33.678584 -117.862806 110 46ft 0kts
24-Oct-20 17:19 33.678584 -117.862806 110 46ft 0kts
24-Oct-20 17:20 33.678584 -117.862806 110 46ft 0kts
24-Oct-20 17:21 33.678584 -117.862806 110 46ft 0kts
24-Oct-20 17:22 33.678584 -117.862806 110 46ft 0kts
24-Oct-20 17:23 33.678584 -117.862806 110 46ft 0kts
24-Oct-20 17:24 33.678679 -117.863115 110 45ft 0kts
24-Oct-20 17:25 33.678679 -117.863115 110 45ft 0kts
24-Oct-20 17:26 33.678679 -117.863115 110 45ft 0kts
24-Oct-20 17:27 33.678679 -117.863115 110 45ft 0kts
24-Oct-20 17:28 33.678679 -117.863115 110 45ft 0kts
24-Oct-20 17:29 33.678679 -117.863115 110 45ft 0kts
24-Oct-20 17:29 33.678679 -117.863115 110 45ft 0kts
24-Oct-20 17:31 33.678677 -117.863066 83 45ft 2kts
24-Oct-20 17:31 33.678810 -117.863010 324 45ft 0kts
24-Oct-20 17:33 33.678810 -117.863010 324 45ft 0kts
24-Oct-20 17:33 33.679338 -117.863196 24 44ft 6kts
24-Oct-20 17:35 33.680600 -117.862957 301 42ft 4kts
24-Oct-20 17:35 33.680699 -117.863173 297 42ft 0kts
24-Oct-20 17:36 33.680699 -117.863173 297 42ft 0kts
24-Oct-20 17:37 33.681197 -117.864282 299 41ft 3kts
24-Oct-20 17:38 33.678158 -117.867308 208 52ft 99kts
24-Oct-20 17:39 33.625705 -117.888863 189 2467ft 228kts
24-Oct-20 17:40 33.563281 -117.901025 189 4328ft 222kts
24-Oct-20 17:41 33.510027 -117.878889 101 6314ft 257kts
24-Oct-20 17:42 33.514856 -117.789645 81 8787ft 278kts
24-Oct-20 17:43 33.530393 -117.694771 75 11100ft 310kts
24-Oct-20 17:44 33.554889 -117.588360 75 12786ft 357kts
24-Oct-20 17:45 33.580973 -117.467333 78 14304ft 385kts
24-Oct-20 17:46 33.604242 -117.345021 78 16330ft 370kts
24-Oct-20 17:47 33.627267 -117.224201 78 17010ft 377kts
24-Oct-20 17:48 33.650040 -117.102553 78 16052ft 356kts
24-Oct-20 17:49 33.670498 -116.989093 78 14336ft 340kts
24-Oct-20 17:50 33.684750 -116.883867 92 14012ft 306kts
24-Oct-20 17:51 33.677083 -116.780686 94 14023ft 314kts
24-Oct-20 17:52 33.671995 -116.675623 93 13947ft 321kts
24-Oct-20 17:53 33.666238 -116.568097 96 12199ft 309kts
24-Oct-20 17:54 33.674244 -116.475436 51 10882ft 273kts
24-Oct-20 17:55 33.730528 -116.415496 37 9132ft 254kts
24-Oct-20 17:56 33.777294 -116.361313 47 7428ft 222kts
24-Oct-20 17:57 33.798050 -116.294079 89 6087ft 211kts
24-Oct-20 17:58 33.772421 -116.230755 140 5667ft 218kts
24-Oct-20 17:59 33.721773 -116.191797 171 4773ft 216kts
24-Oct-20 18:00 33.678394 -116.229021 248 4041ft 210kts
24-Oct-20 18:01 33.665120 -116.301639 276 4109ft 218kts
24-Oct-20 18:02 33.681235 -116.367642 301 4328ft 225kts
24-Oct-20 18:03 33.724113 -116.416211 323 4048ft 197kts
24-Oct-20 18:04 33.765644 -116.451098 324 2694ft 139kts
24-Oct-20 18:05 33.794699 -116.476847 322 1027ft 131kts
24-Oct-20 18:06 33.823422 -116.502116 321 415ft 108kts
24-Oct-20 18:07 33.828890 -116.507815 248 436ft 4kts
24-Oct-20 18:08 33.826867 -116.507221 144 432ft 14kts
24-Oct-20 18:09 33.825211 -116.507735 185 428ft 8kts
24-Oct-20 18:10 33.824323 -116.505992 118 423ft 8kts
24-Oct-20 18:11 33.823430 -116.505938 249 419ft 0kts
24-Oct-20 18:12 33.823429 -116.505940 249 419ft 0kts
24-Oct-20 18:13 33.823429 -116.505940 249 419ft 0kts

Navigation Log

Ident Type
Flight plan parsing failed, navigation log unavailable